Terminal Aerodrome Forecast
Issued by NWS Twin Cities, MN

Home | Current Version | Previous Version | Graphics & Text | Print | Product List | Glossary On
Versions: 1 2 3 4 5 6 7 8 9 10
958
FTUS43 KMPX 250520
TAFEAU
TAF
KEAU 250520Z 2506/2606 16009KT P6SM OVC080 WS020/18040KT
     FM251200 15006KT P6SM BKN060
     FM251800 16007KT P6SM SCT025 BKN040
     FM252100 16007KT 3SM -SHRA BR OVC015
     FM260000 11006KT 2SM -SHRA BR OVC008=

USA.gov is the U.S. government's official web portal to all federal, state and local government web resources and services.